Time;durP1;ratioP1;P1;durP2;ratioP2;P2;SDS_P1;SDS_P2;PMS_P1;PMS_P2;Temp;Humidity;BMP_temperature;BMP_pressure;BME280_temperature;BME280_humidity;BME280_pressure;Samples;Min_cycle;Max_cycle;Signal;HPM_P1;HPM_P2
2023/09/25 00:00:34;;;;;;;5.77;3.10;;;15.00;62.80;;;;;;4812522;29;20201;-32
2023/09/25 00:03:05;;;;;;;6.90;2.67;;;15.00;62.80;;;;;;4783516;29;20205;-32
2023/09/25 00:05:33;;;;;;;3.30;2.43;;;15.00;62.90;;;;;;4797344;29;20209;-32
2023/09/25 00:08:03;;;;;;;3.60;2.50;;;15.00;62.90;;;;;;4798968;29;20290;-32
2023/09/25 00:10:33;;;;;;;4.27;2.50;;;15.00;63.00;;;;;;4796898;29;20213;-32
2023/09/25 00:13:03;;;;;;;5.13;2.73;;;14.90;63.60;;;;;;4797501;29;20211;-32
2023/09/25 00:15:33;;;;;;;3.73;2.40;;;14.90;62.90;;;;;;4811751;29;20244;-32
2023/09/25 00:18:00;;;;;;;3.53;2.40;;;14.90;62.90;;;;;;4798596;29;20205;-32
2023/09/25 00:20:28;;;;;;;4.50;2.40;;;14.90;62.90;;;;;;4798817;29;20222;-32
2023/09/25 00:22:57;;;;;;;2.83;2.10;;;14.90;63.00;;;;;;4797309;29;20316;-32
2023/09/25 00:25:28;;;;;;;5.57;2.70;;;14.90;62.90;;;;;;4812161;29;20657;-32
2023/09/25 00:27:59;;;;;;;5.37;2.63;;;14.80;63.20;;;;;;4798694;29;20702;-32
2023/09/25 00:30:29;;;;;;;4.27;2.43;;;14.80;62.90;;;;;;4799074;29;20269;-32
2023/09/25 00:32:57;;;;;;;4.83;2.40;;;14.80;63.00;;;;;;4798613;29;20312;-32
2023/09/25 00:35:24;;;;;;;6.60;2.67;;;14.80;63.00;;;;;;4796874;29;20710;-32
2023/09/25 00:37:51;;;;;;;4.63;2.60;;;14.70;63.00;;;;;;4798387;29;20335;-32
2023/09/25 00:40:24;;;;;;;5.37;2.70;;;14.70;63.00;;;;;;4811836;29;20205;-32
2023/09/25 00:42:55;;;;;;;3.40;2.27;;;14.70;63.00;;;;;;4797196;29;20205;-32
2023/09/25 00:45:25;;;;;;;3.33;2.10;;;14.70;63.00;;;;;;4798527;29;20278;-32
2023/09/25 00:47:53;;;;;;;4.00;2.60;;;14.70;63.00;;;;;;4798266;29;20213;-32
2023/09/25 00:50:23;;;;;;;3.87;2.53;;;14.70;63.10;;;;;;4798085;29;20217;-32
2023/09/25 00:52:52;;;;;;;4.17;2.30;;;14.70;63.10;;;;;;4798277;29;20700;-32
2023/09/25 00:55:19;;;;;;;4.93;2.50;;;14.60;63.10;;;;;;4796738;29;20201;-32
2023/09/25 00:57:51;;;;;;;4.73;2.53;;;14.60;63.10;;;;;;4810763;29;20343;-32
2023/09/25 01:00:18;;;;;;;3.63;2.40;;;14.60;63.10;;;;;;4797927;29;20221;-32
2023/09/25 01:02:47;;;;;;;3.57;2.43;;;14.60;63.10;;;;;;4798052;29;20731;-32
2023/09/25 01:05:17;;;;;;;5.50;2.23;;;14.60;63.20;;;;;;4811817;29;20341;-32
2023/09/25 01:07:45;;;;;;;6.50;2.90;;;14.60;63.20;;;;;;4798684;29;20641;-32
2023/09/25 01:10:17;;;;;;;3.47;2.30;;;14.60;63.20;;;;;;4796770;29;20258;-32
2023/09/25 01:12:48;;;;;;;4.50;2.23;;;14.60;63.20;;;;;;4796278;29;20225;-32
2023/09/25 01:15:15;;;;;;;2.97;2.00;;;14.60;63.20;;;;;;4797651;29;20299;-32
2023/09/25 01:17:43;;;;;;;5.03;2.30;;;14.60;63.30;;;;;;4796338;29;20791;-32
2023/09/25 01:20:15;;;;;;;4.83;2.23;;;14.60;63.30;;;;;;4797673;29;20677;-32
2023/09/25 01:22:44;;;;;;;3.33;2.33;;;14.60;63.30;;;;;;4800446;29;20456;-32
2023/09/25 01:25:13;;;;;;;2.63;2.00;;;14.60;63.30;;;;;;4799697;29;20213;-32
2023/09/25 01:27:44;;;;;;;5.10;2.30;;;14.50;63.30;;;;;;4801330;29;20221;-31
2023/09/25 01:30:17;;;;;;;3.63;2.20;;;14.50;63.30;;;;;;4799917;29;20273;-32
2023/09/25 01:32:46;;;;;;;4.83;2.57;;;14.50;63.30;;;;;;4784929;29;20213;-32
2023/09/25 01:35:20;;;;;;;4.43;2.70;;;14.50;63.30;;;;;;4801188;29;20213;-32
2023/09/25 01:37:54;;;;;;;4.33;2.60;;;14.50;63.30;;;;;;4801809;29;20228;-30
2023/09/25 01:40:24;;;;;;;5.10;2.50;;;14.50;63.30;;;;;;4799798;29;20240;-30
2023/09/25 01:42:53;;;;;;;4.73;2.33;;;14.50;63.40;;;;;;4800033;29;20858;-30
2023/09/25 01:45:23;;;;;;;3.93;2.30;;;14.50;63.40;;;;;;4801693;29;20547;-30
2023/09/25 01:47:52;;;;;;;3.83;2.47;;;14.50;63.40;;;;;;4799639;29;20619;-30
2023/09/25 01:50:25;;;;;;;5.47;2.70;;;14.40;63.40;;;;;;4800841;29;20304;-30
2023/09/25 01:52:56;;;;;;;4.43;2.03;;;14.40;63.40;;;;;;4801334;29;20213;-30
2023/09/25 01:55:31;;;;;;;3.20;2.20;;;14.40;63.40;;;;;;4799540;29;20610;-30
2023/09/25 01:57:59;;;;;;;5.00;2.23;;;14.40;63.40;;;;;;4799431;29;20318;-30
2023/09/25 02:00:31;;;;;;;4.23;2.20;;;14.40;63.40;;;;;;4801009;29;20250;-30
2023/09/25 02:02:58;;;;;;;3.97;2.17;;;14.40;63.60;;;;;;4800925;29;20321;-30
2023/09/25 02:05:28;;;;;;;3.87;2.30;;;14.40;63.50;;;;;;4801050;29;20727;-30
2023/09/25 02:07:55;;;;;;;4.10;2.27;;;14.30;63.40;;;;;;4800473;29;20282;-30
2023/09/25 02:10:24;;;;;;;3.27;2.20;;;14.30;63.50;;;;;;4800612;29;20209;-30
2023/09/25 02:12:51;;;;;;;3.47;2.50;;;14.30;63.40;;;;;;4799321;29;20241;-30
2023/09/25 02:15:18;;;;;;;4.83;2.53;;;14.30;63.50;;;;;;4800395;29;20292;-30
2023/09/25 02:17:48;;;;;;;4.17;2.33;;;14.30;63.50;;;;;;4798839;29;20339;-30
2023/09/25 02:20:21;;;;;;;5.10;2.23;;;14.30;63.60;;;;;;4801041;29;20223;-30
2023/09/25 02:22:53;;;;;;;5.87;2.67;;;14.30;63.60;;;;;;4800628;29;20304;-30
2023/09/25 02:25:20;;;;;;;5.60;2.40;;;14.30;63.60;;;;;;4800998;29;20262;-30
2023/09/25 02:27:48;;;;;;;3.47;2.10;;;14.30;63.60;;;;;;4798888;29;20236;-30
2023/09/25 02:30:15;;;;;;;5.43;2.03;;;14.30;63.60;;;;;;4783744;29;20217;-30
2023/09/25 02:32:44;;;;;;;4.20;2.17;;;14.30;63.70;;;;;;4798553;29;20268;-31
2023/09/25 02:35:12;;;;;;;4.53;1.97;;;14.30;63.70;;;;;;4798465;29;20239;-30
2023/09/25 02:37:40;;;;;;;3.40;2.00;;;14.30;63.70;;;;;;4800314;29;20321;-30
2023/09/25 02:40:13;;;;;;;6.17;2.40;;;14.30;63.70;;;;;;4798795;29;20213;-30
2023/09/25 02:42:42;;;;;;;3.67;2.03;;;14.30;63.70;;;;;;4798980;29;20953;-30
2023/09/25 02:45:10;;;;;;;2.47;1.87;;;14.30;63.70;;;;;;4798869;29;20220;-30
2023/09/25 02:47:40;;;;;;;2.40;1.90;;;14.30;63.70;;;;;;4799859;29;20608;-30
2023/09/25 02:50:08;;;;;;;5.13;2.10;;;14.30;63.80;;;;;;4783567;29;20515;-30
2023/09/25 02:52:37;;;;;;;4.00;2.13;;;14.30;63.80;;;;;;4798306;29;20735;-30
2023/09/25 02:55:07;;;;;;;3.73;2.40;;;14.30;63.80;;;;;;4798511;29;20263;-30
2023/09/25 02:57:37;;;;;;;4.00;2.20;;;14.30;63.80;;;;;;4799056;29;20323;-30
2023/09/25 03:00:11;;;;;;;2.67;2.17;;;14.30;63.80;;;;;;4798750;29;20592;-30
2023/09/25 03:02:39;;;;;;;5.83;2.10;;;14.30;64.60;;;;;;4784302;29;20232;-30
2023/09/25 03:05:07;;;;;;;2.30;1.93;;;14.30;63.80;;;;;;4799611;29;20213;-30
2023/09/25 03:07:34;;;;;;;4.07;1.90;;;14.30;63.80;;;;;;4799326;29;20209;-30
2023/09/25 03:10:02;;;;;;;4.60;2.20;;;14.30;63.80;;;;;;4798218;29;20519;-30
2023/09/25 03:12:29;;;;;;;3.90;2.10;;;14.30;63.80;;;;;;4799807;29;20565;-30
2023/09/25 03:14:56;;;;;;;3.07;2.03;;;14.30;63.80;;;;;;4799691;29;20205;-30
2023/09/25 03:17:24;;;;;;;3.10;2.20;;;14.30;63.80;;;;;;4799219;29;20313;-30
2023/09/25 03:19:56;;;;;;;3.00;2.17;;;14.20;63.80;;;;;;4799694;29;20412;-30
2023/09/25 03:22:23;;;;;;;3.50;2.10;;;14.20;63.80;;;;;;4797775;29;20311;-30
2023/09/25 03:24:50;;;;;;;2.70;1.77;;;14.20;63.90;;;;;;4799808;29;20217;-30
2023/09/25 03:27:20;;;;;;;3.13;2.03;;;14.20;63.80;;;;;;4799043;29;20251;-30
2023/09/25 03:29:49;;;;;;;3.63;1.93;;;14.20;63.90;;;;;;4783160;29;20558;-30
2023/09/25 03:32:16;;;;;;;3.20;2.23;;;14.20;63.90;;;;;;4798193;29;20217;-30
2023/09/25 03:34:46;;;;;;;6.23;1.90;;;14.20;63.90;;;;;;4797969;29;20304;-30
2023/09/25 03:37:13;;;;;;;3.47;2.07;;;14.20;63.90;;;;;;4782875;29;20716;-30
2023/09/25 03:39:43;;;;;;;2.73;1.90;;;14.20;63.90;;;;;;4797954;29;20319;-30
2023/09/25 03:42:12;;;;;;;3.10;1.97;;;14.20;64.00;;;;;;4799492;29;20668;-30
2023/09/25 03:44:40;;;;;;;3.90;1.93;;;14.20;63.90;;;;;;4798469;29;20325;-30
2023/09/25 03:47:09;;;;;;;5.10;2.03;;;14.20;63.90;;;;;;4797045;29;20205;-30
2023/09/25 03:49:39;;;;;;;4.53;2.23;;;14.20;64.00;;;;;;4783564;29;20205;-30
2023/09/25 03:52:06;;;;;;;3.60;2.20;;;14.20;64.00;;;;;;4797644;29;20239;-30
2023/09/25 03:54:33;;;;;;;3.50;1.70;;;14.20;64.00;;;;;;4797513;29;20291;-30
2023/09/25 03:57:03;;;;;;;4.50;2.23;;;14.20;64.00;;;;;;4782480;29;20321;-30
2023/09/25 03:59:30;;;;;;;3.97;2.20;;;14.20;64.00;;;;;;4797310;29;20232;-30
2023/09/25 04:01:57;;;;;;;4.53;2.33;;;14.20;64.00;;;;;;4797039;29;20209;-30
2023/09/25 04:04:25;;;;;;;3.43;1.97;;;14.20;64.00;;;;;;4799043;29;20224;-30
2023/09/25 04:06:57;;;;;;;4.10;2.00;;;14.20;64.10;;;;;;4797528;29;20570;-30
2023/09/25 04:09:24;;;;;;;2.83;1.80;;;14.20;64.10;;;;;;4797836;29;20684;-30
2023/09/25 04:11:55;;;;;;;4.03;2.00;;;14.20;64.10;;;;;;4797430;29;20312;-30
2023/09/25 04:14:24;;;;;;;3.13;2.13;;;14.20;64.10;;;;;;4796917;29;20225;-30
2023/09/25 04:16:54;;;;;;;2.47;1.93;;;14.20;64.20;;;;;;4796895;29;20324;-30
2023/09/25 04:19:21;;;;;;;3.47;1.80;;;14.20;64.10;;;;;;4798498;29;20229;-30
2023/09/25 04:21:52;;;;;;;4.07;1.80;;;14.20;64.20;;;;;;4796927;29;20201;-30
2023/09/25 04:24:19;;;;;;;3.67;1.80;;;14.20;64.20;;;;;;4797244;29;20435;-30
2023/09/25 04:26:51;;;;;;;4.27;1.90;;;14.20;64.20;;;;;;4796889;29;20265;-30
2023/09/25 04:29:18;;;;;;;2.67;1.63;;;14.20;64.20;;;;;;4797224;29;20213;-30
2023/09/25 04:31:48;;;;;;;4.07;2.00;;;14.20;64.20;;;;;;4797018;29;20748;-30
2023/09/25 04:34:16;;;;;;;2.67;1.80;;;14.20;64.20;;;;;;4797165;29;20293;-30
2023/09/25 04:36:48;;;;;;;4.33;1.90;;;14.20;64.20;;;;;;4796810;29;20653;-30
2023/09/25 04:39:20;;;;;;;3.93;1.87;;;14.20;64.20;;;;;;4798162;29;20249;-30
2023/09/25 04:41:47;;;;;;;4.33;2.00;;;14.20;64.20;;;;;;4796772;29;20237;-30
2023/09/25 04:44:17;;;;;;;4.00;2.00;;;14.20;64.20;;;;;;4782246;29;20605;-30
2023/09/25 04:46:50;;;;;;;2.87;1.80;;;14.30;64.30;;;;;;4797187;29;20710;-30
2023/09/25 04:49:20;;;;;;;3.83;1.97;;;14.30;64.30;;;;;;4798086;29;20239;-30
2023/09/25 04:51:50;;;;;;;3.00;1.80;;;14.30;64.30;;;;;;4781507;29;20201;-30
2023/09/25 04:54:19;;;;;;;4.23;2.13;;;14.30;64.30;;;;;;4796566;29;20216;-31
2023/09/25 04:56:49;;;;;;;5.87;2.33;;;14.30;64.30;;;;;;4798998;29;20205;-30
2023/09/25 04:59:20;;;;;;;4.10;1.97;;;14.30;64.30;;;;;;4801748;29;20308;-30
2023/09/25 05:01:48;;;;;;;3.33;2.10;;;14.40;64.30;;;;;;4800027;29;20304;-30
2023/09/25 05:04:17;;;;;;;4.83;2.53;;;14.40;64.30;;;;;;4800982;29;20266;-30
2023/09/25 05:06:46;;;;;;;4.80;2.00;;;14.40;64.30;;;;;;4800223;29;20312;-30
2023/09/25 05:09:15;;;;;;;4.83;1.80;;;14.40;64.30;;;;;;4801157;29;20786;-30
2023/09/25 05:11:42;;;;;;;4.03;2.20;;;14.40;64.30;;;;;;4799828;29;20979;-30
2023/09/25 05:14:12;;;;;;;4.67;2.10;;;14.40;64.30;;;;;;4799581;29;20212;-30
2023/09/25 05:16:41;;;;;;;4.47;2.43;;;14.50;64.40;;;;;;4801206;29;20312;-30
2023/09/25 05:19:08;;;;;;;4.10;2.10;;;14.50;64.30;;;;;;4800484;29;20225;-32
2023/09/25 05:21:36;;;;;;;4.17;1.93;;;14.50;64.30;;;;;;4802114;29;20701;-32
2023/09/25 05:24:03;;;;;;;4.40;2.27;;;14.50;64.30;;;;;;4800306;29;20752;-30
2023/09/25 05:26:36;;;;;;;4.90;2.20;;;14.50;64.30;;;;;;4801033;29;20225;-30
2023/09/25 05:29:05;;;;;;;4.50;2.30;;;14.50;64.30;;;;;;4799502;29;20304;-30
2023/09/25 05:31:32;;;;;;;4.80;2.57;;;14.50;64.20;;;;;;4800591;29;20282;-30
2023/09/25 05:34:03;;;;;;;5.40;2.30;;;14.50;64.30;;;;;;4800615;29;20216;-30
2023/09/25 05:36:30;;;;;;;5.33;2.00;;;14.50;64.30;;;;;;4800629;29;20254;-30
2023/09/25 05:38:58;;;;;;;4.20;2.33;;;14.50;64.30;;;;;;4801085;29;20233;-30
2023/09/25 05:41:25;;;;;;;4.23;2.20;;;14.50;64.20;;;;;;4799404;29;20299;-30
2023/09/25 05:43:56;;;;;;;4.80;2.13;;;14.50;64.30;;;;;;4800653;29;20803;-30
2023/09/25 05:46:25;;;;;;;5.57;2.00;;;14.50;64.30;;;;;;4801004;29;20224;-30
2023/09/25 05:48:53;;;;;;;8.27;2.50;;;14.50;64.30;;;;;;4800687;29;20240;-30
2023/09/25 05:51:26;;;;;;;7.13;2.10;;;14.50;64.30;;;;;;4799841;29;20231;-30
2023/09/25 05:53:54;;;;;;;5.23;2.23;;;14.50;64.30;;;;;;4800882;29;20209;-30
2023/09/25 05:56:23;;;;;;;3.70;2.37;;;14.50;64.30;;;;;;4801552;29;20304;-31
2023/09/25 05:58:53;;;;;;;5.80;2.03;;;14.50;64.30;;;;;;4801023;29;20292;-31
2023/09/25 06:01:23;;;;;;;5.97;2.00;;;14.50;64.30;;;;;;4800803;29;20300;-31
2023/09/25 06:03:50;;;;;;;4.50;2.33;;;14.50;64.40;;;;;;4799040;29;20216;-31
2023/09/25 06:06:17;;;;;;;7.93;2.50;;;14.60;64.40;;;;;;4798941;29;20221;-30
2023/09/25 06:08:47;;;;;;;4.93;2.50;;;14.50;64.30;;;;;;4799263;29;20209;-31
2023/09/25 06:11:15;;;;;;;5.80;2.23;;;14.60;64.40;;;;;;4783819;29;20205;-30
2023/09/25 06:13:42;;;;;;;6.20;2.40;;;14.60;64.40;;;;;;4798995;29;20747;-31
2023/09/25 06:16:09;;;;;;;5.30;2.70;;;14.60;64.40;;;;;;4783841;29;20292;-31
2023/09/25 06:18:40;;;;;;;6.50;2.30;;;14.60;64.40;;;;;;4798592;29;20233;-31
2023/09/25 06:21:13;;;;;;;6.43;2.60;;;14.50;64.40;;;;;;4784167;29;20312;-30
2023/09/25 06:23:43;;;;;;;7.90;2.70;;;14.60;64.50;;;;;;4800164;29;20235;-30
2023/09/25 06:26:10;;;;;;;4.00;2.20;;;14.60;64.50;;;;;;4798481;29;20286;-30
2023/09/25 06:28:41;;;;;;;6.90;2.43;;;14.60;64.50;;;;;;4798479;29;20221;-30
2023/09/25 06:31:09;;;;;;;7.97;3.13;;;14.60;64.50;;;;;;4800294;29;20209;-30
2023/09/25 06:33:36;;;;;;;10.00;3.00;;;14.60;64.60;;;;;;4798994;29;20233;-30
2023/09/25 06:36:03;;;;;;;9.23;3.13;;;14.70;64.60;;;;;;4798275;29;20216;-30
2023/09/25 06:38:31;;;;;;;9.97;2.93;;;14.70;65.40;;;;;;4799651;29;20319;-37
2023/09/25 06:41:01;;;;;;;7.23;2.63;;;14.70;64.60;;;;;;4798518;29;20707;-30
2023/09/25 06:43:28;;;;;;;13.20;3.00;;;14.70;64.70;;;;;;4799999;29;20347;-30
2023/09/25 06:45:58;;;;;;;10.50;3.10;;;14.70;64.70;;;;;;4799895;29;20586;-30
2023/09/25 06:48:25;;;;;;;14.47;2.70;;;14.70;64.60;;;;;;4798275;29;20221;-30
2023/09/25 06:50:53;;;;;;;10.00;2.73;;;14.80;64.70;;;;;;4797908;29;20221;-30
2023/09/25 06:53:22;;;;;;;8.07;2.47;;;14.80;64.70;;;;;;4797827;29;20236;-30
2023/09/25 06:55:52;;;;;;;9.20;2.87;;;14.80;64.80;;;;;;4799349;29;20209;-30
2023/09/25 06:58:22;;;;;;;9.17;2.70;;;14.80;64.80;;;;;;4800083;29;20241;-30
2023/09/25 07:00:52;;;;;;;8.03;2.70;;;14.90;64.90;;;;;;4783176;29;20273;-30
2023/09/25 07:03:26;;;;;;;4.17;2.50;;;14.90;64.80;;;;;;4799479;29;20269;-30
2023/09/25 07:05:54;;;;;;;4.03;2.30;;;15.00;64.90;;;;;;4797989;29;20274;-30
2023/09/25 07:08:21;;;;;;;20.20;2.77;;;15.00;65.00;;;;;;4798378;29;20212;-30
2023/09/25 07:10:49;;;;;;;28.37;4.10;;;15.00;65.00;;;;;;4798581;29;20219;-30
2023/09/25 07:13:16;;;;;;;30.37;4.60;;;15.10;65.10;;;;;;4798296;29;20216;-30
2023/09/25 07:15:43;;;;;;;37.97;4.90;;;15.10;65.00;;;;;;4799103;29;20285;-30
2023/09/25 07:18:11;;;;;;;11.33;3.10;;;15.20;65.10;;;;;;4797867;29;20244;-30
2023/09/25 07:20:39;;;;;;;5.83;2.13;;;15.20;65.10;;;;;;4799130;29;20684;-30
2023/09/25 07:23:06;;;;;;;6.90;2.07;;;15.30;65.10;;;;;;4783155;29;20382;-30
2023/09/25 07:25:36;;;;;;;3.53;1.60;;;15.30;65.00;;;;;;4799129;29;20741;-30
2023/09/25 07:28:04;;;;;;;5.57;1.83;;;15.40;65.10;;;;;;4797621;29;20704;-30
2023/09/25 07:30:31;;;;;;;15.70;3.00;;;15.40;65.10;;;;;;4797655;29;20692;-30
2023/09/25 07:32:58;;;;;;;15.23;2.70;;;15.50;65.10;;;;;;4797679;29;20236;-30
2023/09/25 07:35:26;;;;;;;10.50;2.73;;;15.50;65.10;;;;;;4799243;29;20240;-30
2023/09/25 07:37:53;;;;;;;4.45;1.67;;;15.50;65.10;;;;;;4797415;29;20495;-30
2023/09/25 07:40:20;;;;;;;8.90;2.20;;;15.60;65.10;;;;;;4782441;29;20217;-30
2023/09/25 07:42:47;;;;;;;9.00;2.33;;;15.70;65.20;;;;;;4797169;29;20245;-30
2023/09/25 07:45:22;;;;;;;12.50;2.90;;;15.70;65.20;;;;;;4799095;29;20209;-30
2023/09/25 07:47:54;;;;;;;10.23;2.20;;;15.80;65.20;;;;;;4798898;29;20216;-30
2023/09/25 07:50:27;;;;;;;14.60;2.57;;;15.80;65.20;;;;;;4782665;29;20315;-30
2023/09/25 07:52:56;;;;;;;6.67;1.90;;;15.80;65.20;;;;;;4797098;29;20225;-30
2023/09/25 07:55:26;;;;;;;4.40;1.87;;;15.90;65.30;;;;;;4782197;29;20650;-30
2023/09/25 07:57:56;;;;;;;5.67;2.30;;;16.00;65.30;;;;;;4797202;29;20233;-30
2023/09/25 08:00:34;;;;;;;4.47;1.60;;;16.00;65.30;;;;;;4797072;29;20221;-30
2023/09/25 08:03:06;;;;;;;3.07;1.80;;;16.10;65.30;;;;;;4798198;29;20752;-30
2023/09/25 08:05:35;;;;;;;2.80;1.77;;;16.10;65.20;;;;;;4797858;29;20299;-30
2023/09/25 08:08:03;;;;;;;3.43;1.77;;;16.20;65.30;;;;;;4796954;29;20654;-30
2023/09/25 08:10:31;;;;;;;3.90;1.73;;;16.20;65.30;;;;;;4782356;29;20773;-30
2023/09/25 08:12:58;;;;;;;3.23;1.57;;;16.30;65.30;;;;;;4798570;29;20270;-30
2023/09/25 08:15:28;;;;;;;4.30;1.70;;;16.30;65.30;;;;;;4796925;29;20221;-30
2023/09/25 08:17:57;;;;;;;2.73;1.60;;;16.40;65.30;;;;;;4798205;29;20331;-30
2023/09/25 08:20:28;;;;;;;3.20;1.40;;;16.40;65.40;;;;;;4797111;29;20589;-30
2023/09/25 08:23:00;;;;;;;5.00;1.50;;;16.40;65.30;;;;;;4797590;29;20250;-30
2023/09/25 08:25:27;;;;;;;3.00;1.60;;;16.50;65.30;;;;;;4797038;29;20682;-30
2023/09/25 08:27:55;;;;;;;3.67;1.50;;;16.60;65.30;;;;;;4798023;29;20719;-30
2023/09/25 08:30:22;;;;;;;4.10;1.67;;;16.60;65.40;;;;;;4796814;29;20636;-31
2023/09/25 08:32:53;;;;;;;3.43;1.77;;;16.70;65.40;;;;;;4801940;29;20206;-31
2023/09/25 08:35:21;;;;;;;4.83;1.50;;;16.80;65.40;;;;;;4804142;29;20597;-31
2023/09/25 08:37:49;;;;;;;2.63;1.50;;;16.80;65.40;;;;;;4804345;29;20212;-31
2023/09/25 08:40:19;;;;;;;5.40;1.50;;;16.90;65.50;;;;;;4787949;29;20212;-31
2023/09/25 08:42:48;;;;;;;3.83;1.73;;;16.90;65.50;;;;;;4803873;29;20209;-31
2023/09/25 08:45:22;;;;;;;6.93;1.75;;;16.90;65.40;;;;;;4802802;29;20220;-30
2023/09/25 08:47:52;;;;;;;11.20;2.40;;;17.00;65.40;;;;;;4787879;29;20247;-30
2023/09/25 08:50:22;;;;;;;8.53;2.23;;;17.10;65.40;;;;;;4802369;29;20285;-30
2023/09/25 08:52:50;;;;;;;13.27;2.43;;;17.10;65.40;;;;;;4802602;29;20528;-30
2023/09/25 08:55:23;;;;;;;17.83;2.72;;;17.20;65.50;;;;;;4804320;29;20208;-31
2023/09/25 08:57:53;;;;;;;8.45;2.22;;;17.20;65.50;;;;;;4788153;29;20299;-30
2023/09/25 09:00:23;;;;;;;6.07;1.83;;;17.30;65.60;;;;;;4788118;29;20610;-31
2023/09/25 09:02:50;;;;;;;3.00;1.38;;;17.30;65.60;;;;;;4803976;29;20331;-30
2023/09/25 09:05:17;;;;;;;2.95;1.65;;;17.40;65.60;;;;;;4787851;29;20250;-30
2023/09/25 09:08:02;;;;;;;4.43;1.60;;;17.50;65.60;;;;;;4787721;29;20277;-31
2023/09/25 09:10:34;;;;;;;2.90;1.50;;;17.50;65.60;;;;;;4802567;29;20265;-30
2023/09/25 09:13:07;;;;;;;3.58;1.60;;;17.60;65.60;;;;;;4802608;29;20568;-30
2023/09/25 09:15:38;;;;;;;2.70;1.50;;;17.60;65.60;;;;;;4804010;29;20223;-30
2023/09/25 09:18:25;;;;;;;3.67;1.75;;;17.70;65.70;;;;;;4802500;29;20221;-30
2023/09/25 09:20:55;;;;;;;4.20;1.70;;;17.80;65.70;;;;;;4803939;29;20213;-30
2023/09/25 09:23:40;;;;;;;10.25;1.60;;;17.80;65.70;;;;;;4802123;29;20672;-33
2023/09/25 09:26:08;;;;;;;3.90;1.77;;;17.90;65.60;;;;;;4803777;29;20208;-33
2023/09/25 09:28:36;;;;;;;1.77;1.37;;;18.00;65.70;;;;;;4802096;29;20212;-33
2023/09/25 09:31:07;;;;;;;5.57;1.73;;;18.00;65.70;;;;;;4802392;29;20228;-33
2023/09/25 09:33:41;;;;;;;5.70;1.40;;;18.10;65.70;;;;;;4804340;29;20269;-32
2023/09/25 09:36:10;;;;;;;5.55;1.88;;;18.10;65.60;;;;;;4803830;29;20693;-33
2023/09/25 09:38:39;;;;;;;3.15;1.42;;;18.20;65.70;;;;;;4802189;29;20225;-33
2023/09/25 09:41:10;;;;;;;17.33;2.92;;;18.20;65.60;;;;;;4802251;29;20209;-33
2023/09/25 09:43:41;;;;;;;7.07;1.92;;;18.30;65.70;;;;;;4799664;29;20245;-33
2023/09/25 09:46:11;;;;;;;11.55;2.53;;;18.40;65.70;;;;;;4800283;29;20248;-33
2023/09/25 09:48:41;;;;;;;5.45;1.90;;;18.40;65.70;;;;;;4799220;29;20221;-33
2023/09/25 09:51:11;;;;;;;4.00;1.70;;;18.50;65.70;;;;;;4798900;29;20219;-33
2023/09/25 09:53:41;;;;;;;2.63;1.70;;;18.60;65.70;;;;;;4800710;29;20273;-32
2023/09/25 09:56:09;;;;;;;1.85;1.52;;;18.60;65.70;;;;;;4800724;29;20700;-33
2023/09/25 09:58:37;;;;;;;4.05;1.40;;;18.70;65.70;;;;;;4799144;29;20312;-33
2023/09/25 10:01:05;;;;;;;5.22;1.60;;;18.70;65.70;;;;;;4784695;29;20233;-33
2023/09/25 10:03:35;;;;;;;4.70;1.40;;;18.80;65.70;;;;;;4800227;29;20237;-32
2023/09/25 10:06:03;;;;;;;3.88;1.80;;;18.90;65.70;;;;;;4798890;29;20228;-33
2023/09/25 10:08:31;;;;;;;3.35;1.70;;;18.90;65.70;;;;;;4800298;29;20561;-33
2023/09/25 10:11:23;;;;;;;5.68;1.30;;;19.00;65.70;;;;;;4800688;29;20223;-33
2023/09/25 10:13:55;;;;;;;3.90;1.50;;;19.00;65.60;;;;;;4784548;29;20256;-33
2023/09/25 10:16:22;;;;;;;4.18;1.70;;;19.10;65.70;;;;;;4800067;29;20346;-33
2023/09/25 10:18:52;;;;;;;5.00;1.85;;;19.20;65.80;;;;;;4799893;29;20225;-33
2023/09/25 10:21:22;;;;;;;3.38;1.63;;;19.20;65.70;;;;;;4798963;29;20205;-33
2023/09/25 10:23:54;;;;;;;4.03;1.90;;;19.30;65.70;;;;;;4798737;29;20239;-33
2023/09/25 10:26:24;;;;;;;3.67;1.65;;;19.40;65.80;;;;;;4800220;29;20732;-33
2023/09/25 10:29:12;;;;;;;5.53;1.70;;;19.40;65.70;;;;;;4800163;29;20202;-33
2023/09/25 10:31:45;;;;;;;4.75;1.70;;;19.50;65.70;;;;;;4800085;29;20221;-33
2023/09/25 10:34:13;;;;;;;2.83;1.52;;;19.50;65.60;;;;;;4799863;29;20311;-33
2023/09/25 10:36:42;;;;;;;3.03;1.90;;;19.60;65.60;;;;;;4798325;29;20216;-33
2023/09/25 10:39:16;;;;;;;4.30;1.77;;;19.70;65.70;;;;;;4799637;29;20231;-33
2023/09/25 10:42:06;;;;;;;4.15;1.92;;;19.70;65.50;;;;;;4799630;29;20552;-33
2023/09/25 10:44:36;;;;;;;2.75;1.45;;;19.70;65.40;;;;;;4799604;29;20335;-33
2023/09/25 10:47:09;;;;;;;3.70;1.95;;;19.80;65.50;;;;;;4783426;29;20213;-33
2023/09/25 10:49:39;;;;;;;9.45;1.55;;;19.80;65.40;;;;;;4798298;29;20229;-33
2023/09/25 10:52:08;;;;;;;4.85;1.88;;;19.90;65.50;;;;;;4798269;29;20571;-33
2023/09/25 10:54:40;;;;;;;3.92;1.70;;;19.90;65.50;;;;;;4798967;29;20508;-33
2023/09/25 10:57:11;;;;;;;4.38;1.45;;;20.00;65.60;;;;;;4797584;29;20731;-33
2023/09/25 10:59:38;;;;;;;2.97;1.40;;;20.00;65.50;;;;;;4797463;29;20671;-33
2023/09/25 11:02:13;;;;;;;4.55;1.55;;;20.10;65.50;;;;;;4783215;29;20286;-33
2023/09/25 11:04:41;;;;;;;3.25;1.48;;;20.20;65.40;;;;;;4799276;29;20628;-33
2023/09/25 11:07:08;;;;;;;1.77;1.30;;;20.20;65.40;;;;;;4797487;29;20220;-33
2023/09/25 11:09:35;;;;;;;3.17;1.50;;;20.20;65.50;;;;;;4799292;29;20236;-33
2023/09/25 11:12:03;;;;;;;3.58;1.45;;;20.30;65.50;;;;;;4799145;29;20216;-33
2023/09/25 11:14:37;;;;;;;2.67;1.77;;;20.30;65.30;;;;;;4797616;29;20219;-33
2023/09/25 11:17:04;;;;;;;5.72;1.75;;;20.30;65.10;;;;;;4797996;29;20292;-33
2023/09/25 11:19:32;;;;;;;2.65;1.52;;;20.40;65.30;;;;;;4798977;29;20236;-33
2023/09/25 11:22:01;;;;;;;2.42;1.50;;;20.40;65.20;;;;;;4797702;29;20284;-30
2023/09/25 11:24:36;;;;;;;5.95;1.65;;;20.50;65.10;;;;;;4797964;29;20209;-30
2023/09/25 11:27:08;;;;;;;2.88;1.73;;;20.50;65.10;;;;;;4797841;29;20213;-30
2023/09/25 11:29:35;;;;;;;3.45;1.58;;;20.50;64.70;;;;;;4798792;29;20300;-30
2023/09/25 11:32:05;;;;;;;4.38;1.80;;;20.50;65.00;;;;;;4798860;29;20967;-30
2023/09/25 11:34:37;;;;;;;7.38;1.80;;;20.60;64.90;;;;;;4797514;29;20325;-30
2023/09/25 11:37:04;;;;;;;5.43;1.60;;;20.60;64.70;;;;;;4798931;29;20217;-30
2023/09/25 11:39:34;;;;;;;3.05;1.67;;;20.60;64.80;;;;;;4782670;29;20225;-30
2023/09/25 11:42:03;;;;;;;4.53;1.80;;;20.60;64.90;;;;;;4798501;29;20797;-30
2023/09/25 11:44:33;;;;;;;3.92;1.60;;;20.70;64.80;;;;;;4798641;29;20244;-30
2023/09/25 11:47:00;;;;;;;2.88;1.20;;;20.70;64.80;;;;;;4798958;29;20236;-30
2023/09/25 11:49:30;;;;;;;5.00;1.55;;;20.80;64.80;;;;;;4797592;29;20213;-30
2023/09/25 11:51:59;;;;;;;3.65;1.70;;;20.80;64.60;;;;;;4798413;29;20224;-30
2023/09/25 11:54:27;;;;;;;3.95;1.50;;;20.80;64.60;;;;;;4798832;29;20250;-30
2023/09/25 11:56:59;;;;;;;5.88;1.73;;;20.90;64.70;;;;;;4798340;29;20412;-30
2023/09/25 11:59:30;;;;;;;4.97;2.10;;;20.90;64.80;;;;;;4797382;29;20321;-30
2023/09/25 12:02:00;;;;;;;3.72;2.00;;;20.90;64.60;;;;;;4797788;29;20239;-30
2023/09/25 12:04:30;;;;;;;4.13;2.00;;;20.90;64.60;;;;;;4798527;29;20356;-30
2023/09/25 12:07:00;;;;;;;2.55;1.85;;;21.00;64.70;;;;;;4798025;29;20694;-30
2023/09/25 12:09:29;;;;;;;3.17;2.00;;;21.00;64.60;;;;;;4798331;29;20220;-31
2023/09/25 12:11:59;;;;;;;4.82;1.88;;;21.10;64.60;;;;;;4796529;29;20215;-30
2023/09/25 12:14:26;;;;;;;9.73;1.85;;;21.10;64.60;;;;;;4798334;29;20301;-30
2023/09/25 12:16:53;;;;;;;10.02;2.20;;;21.10;64.50;;;;;;4798812;29;20556;-30
2023/09/25 12:19:23;;;;;;;7.72;2.00;;;21.10;64.50;;;;;;4796920;29;20221;-30
2023/09/25 12:21:55;;;;;;;4.00;1.63;;;21.20;64.50;;;;;;4796873;29;20688;-30
2023/09/25 12:24:22;;;;;;;14.30;2.63;;;21.20;64.50;;;;;;4798581;29;20217;-30
2023/09/25 12:26:49;;;;;;;3.40;1.60;;;21.20;64.60;;;;;;4796744;29;20217;-30
2023/09/25 12:29:17;;;;;;;3.70;1.95;;;21.20;64.40;;;;;;4796995;29;20766;-30
2023/09/25 12:31:47;;;;;;;3.92;1.60;;;21.30;64.40;;;;;;4797334;29;20235;-30
2023/09/25 12:34:17;;;;;;;6.35;2.08;;;21.30;64.30;;;;;;4798117;29;20223;-30
2023/09/25 12:36:46;;;;;;;6.25;2.17;;;21.30;64.30;;;;;;4798638;29;20244;-30
2023/09/25 12:39:16;;;;;;;2.70;1.58;;;21.30;64.30;;;;;;4798375;29;20224;-30
2023/09/25 12:41:43;;;;;;;3.63;1.40;;;21.30;64.20;;;;;;4797022;29;20628;-30
2023/09/25 12:44:13;;;;;;;4.32;1.77;;;21.40;64.20;;;;;;4796736;29;20237;-30
2023/09/25 12:46:40;;;;;;;3.50;1.80;;;21.40;64.10;;;;;;4796527;29;20291;-30
2023/09/25 12:49:07;;;;;;;3.58;1.75;;;21.40;64.20;;;;;;4796827;29;20217;-30
2023/09/25 12:51:34;;;;;;;11.25;2.40;;;21.40;64.10;;;;;;4796557;29;20313;-30
2023/09/25 12:54:03;;;;;;;6.55;2.28;;;21.40;63.90;;;;;;4798357;29;20221;-30
2023/09/25 12:56:31;;;;;;;14.10;2.80;;;21.50;64.00;;;;;;4797959;29;20289;-30